Time;durP1;ratioP1;P1;durP2;ratioP2;P2;SDS_P1;SDS_P2;PMS_P1;PMS_P2;Temp;Humidity;BMP_temperature;BMP_pressure;BME280_temperature;BME280_humidity;BME280_pressure;Samples;Min_cycle;Max_cycle;Signal;HPM_P1;HPM_P2
2023/06/19 00:01:59;;;;;;;11.75;8.70;;;;;;;20.67;92.79;99852.25;5005311;28;20032;-18
2023/06/19 00:04:26;;;;;;;10.18;8.20;;;;;;;20.60;94.19;99857.25;5005332;28;20033;-18
2023/06/19 00:06:52;;;;;;;10.32;8.30;;;;;;;20.58;92.87;99859.41;5005336;28;20032;-19
2023/06/19 00:09:18;;;;;;;13.25;8.35;;;;;;;20.50;95.59;99857.34;5005094;28;20420;-18
2023/06/19 00:11:43;;;;;;;12.05;8.02;;;;;;;20.35;97.42;99861.03;5005432;28;20497;-21
2023/06/19 00:14:09;;;;;;;10.70;8.25;;;;;;;20.40;97.32;99871.81;5005177;28;20156;-18
2023/06/19 00:16:34;;;;;;;10.73;8.73;;;;;;;20.44;97.05;99865.50;5005424;28;20419;-18
2023/06/19 00:18:59;;;;;;;10.48;9.38;;;;;;;20.27;100.00;99860.56;5005010;28;20425;-18
2023/06/19 00:21:25;;;;;;;10.77;8.73;;;;;;;20.35;96.37;99850.19;5005258;28;20698;-18
2023/06/19 00:23:52;;;;;;;9.93;8.00;;;;;;;20.51;92.92;99867.06;5005354;28;20103;-17
2023/06/19 00:26:19;;;;;;;11.00;8.23;;;;;;;20.52;93.34;99865.97;5005177;28;20493;-18
2023/06/19 00:28:47;;;;;;;11.52;8.43;;;;;;;20.43;92.33;99855.78;5005117;28;20046;-19
2023/06/19 00:31:13;;;;;;;11.57;7.97;;;;;;;20.42;92.21;99851.47;5005505;28;20030;-18
2023/06/19 00:33:40;;;;;;;11.73;8.10;;;;;;;20.39;91.74;99857.47;5008981;28;21295;-18
2023/06/19 00:36:12;;;;;;;11.50;8.05;;;;;;;20.42;91.94;99851.47;5008526;28;20057;-18
2023/06/19 00:38:41;;;;;;;10.43;7.78;;;;;;;20.43;91.01;99852.25;5008529;28;20026;-18
2023/06/19 00:41:07;;;;;;;12.15;7.85;;;;;;;20.38;90.43;99850.41;5008474;28;20049;-18
2023/06/19 00:43:33;;;;;;;9.50;7.93;;;;;;;20.27;90.33;99849.75;5008158;28;20049;-17
2023/06/19 00:45:59;;;;;;;10.50;7.90;;;;;;;20.22;91.42;99851.69;5008370;28;20022;-19
2023/06/19 00:48:27;;;;;;;10.55;7.70;;;;;;;20.30;91.27;99859.19;5008143;28;20037;-18
2023/06/19 00:50:52;;;;;;;10.38;7.35;;;;;;;20.42;88.73;99864.19;5008262;28;20025;-20
2023/06/19 00:53:19;;;;;;;11.55;8.23;;;;;;;20.31;89.95;99860.81;5008197;28;20406;-18
2023/06/19 00:55:46;;;;;;;11.88;7.88;;;;;;;20.28;89.38;99858.66;5008267;28;20030;-19
2023/06/19 00:58:12;;;;;;;10.02;8.20;;;;;;;20.44;88.21;99854.69;5008341;28;20030;-18
2023/06/19 01:00:37;;;;;;;11.93;8.00;;;;;;;20.24;88.87;99842.19;5008168;28;20083;-18
2023/06/19 01:03:03;;;;;;;10.05;7.68;;;;;;;20.28;89.69;99858.66;5007857;28;20030;-19
2023/06/19 01:05:29;;;;;;;10.73;7.97;;;;;;;20.31;88.65;99855.41;5008109;28;20034;-18
2023/06/19 01:08:12;;;;;;;9.65;7.47;;;;;;;20.23;89.01;99859.53;5008014;28;20022;-18
2023/06/19 01:10:47;;;;;;;10.40;8.00;;;;;;;20.02;90.04;99848.13;5007948;28;20029;-21
2023/06/19 01:13:44;;;;;;;9.45;7.70;;;;;;;20.09;91.23;99864.03;5008084;28;20032;-18
2023/06/19 01:16:11;;;;;;;14.15;8.38;;;;;;;20.10;91.08;99857.50;5007665;28;20042;-18
2023/06/19 01:18:37;;;;;;;9.98;8.30;;;;;;;20.00;92.01;99850.31;5007906;28;20037;-18
2023/06/19 01:21:16;;;;;;;10.00;7.57;;;;;;;20.22;92.54;99859.81;5007879;28;20032;-18
2023/06/19 01:23:43;;;;;;;11.45;8.27;;;;;;;20.15;93.20;99868.28;5007741;28;20485;-17
2023/06/19 01:26:09;;;;;;;10.10;7.97;;;;;;;20.15;93.11;99864.78;5007610;28;20409;-18
2023/06/19 01:28:40;;;;;;;12.18;8.38;;;;;;;20.13;93.61;99872.38;5007612;28;20033;-18
2023/06/19 01:31:20;;;;;;;15.32;9.70;;;;;;;20.04;93.57;99856.78;5007439;28;20153;-18
2023/06/19 01:33:48;;;;;;;12.05;8.82;;;;;;;20.06;94.88;99860.00;5007564;28;20034;-23
2023/06/19 01:36:15;;;;;;;12.65;9.23;;;;;;;20.07;95.21;99872.44;5007747;28;20506;-17
2023/06/19 01:38:44;;;;;;;14.13;9.20;;;;;;;19.90;95.89;99855.00;5007640;28;20029;-18
2023/06/19 01:41:10;;;;;;;9.60;7.93;;;;;;;20.05;95.35;99865.69;5007254;28;20079;-18
2023/06/19 01:43:37;;;;;;;12.05;8.45;;;;;;;20.15;94.39;99867.50;5006065;28;20054;-18
2023/06/19 01:46:02;;;;;;;12.45;8.85;;;;;;;20.08;94.19;99870.53;5007359;28;20068;-19
2023/06/19 01:48:28;;;;;;;12.93;9.18;;;;;;;19.87;96.04;99867.22;5007211;28;20521;-17
2023/06/19 01:50:54;;;;;;;10.70;9.38;;;;;;;19.94;96.56;99867.72;5007374;28;20022;-18
2023/06/19 01:53:19;;;;;;;12.43;9.88;;;;;;;20.12;94.64;99876.19;5007028;28;20048;-18
2023/06/19 01:55:45;;;;;;;11.57;9.60;;;;;;;20.09;94.94;99874.84;5007371;28;20633;-18
2023/06/19 01:58:11;;;;;;;13.60;9.38;;;;;;;20.01;96.03;99868.16;5006821;28;20058;-18
2023/06/19 02:00:37;;;;;;;12.68;9.18;;;;;;;20.12;95.22;99873.47;5007088;28;20030;-19
2023/06/19 02:03:03;;;;;;;13.88;9.82;;;;;;;19.99;96.64;99874.97;5007181;28;20026;-19
2023/06/19 02:05:30;;;;;;;14.15;9.82;;;;;;;19.93;97.92;99878.81;5007167;28;20033;-18
2023/06/19 02:07:55;;;;;;;12.43;9.70;;;;;;;19.97;97.67;99874.44;5006689;28;20193;-18
2023/06/19 02:10:20;;;;;;;13.02;9.70;;;;;;;19.82;98.38;99878.91;5006732;28;20072;-18
2023/06/19 02:12:46;;;;;;;11.48;9.05;;;;;;;19.81;99.82;99873.78;5006919;28;20432;-18
2023/06/19 02:15:11;;;;;;;12.65;9.90;;;;;;;19.90;97.67;99876.66;5006663;28;20088;-19
2023/06/19 02:17:37;;;;;;;11.55;9.25;;;;;;;19.82;98.88;99867.28;5006866;28;20022;-20
2023/06/19 02:20:05;;;;;;;11.68;9.93;;;;;;;19.86;97.50;99885.38;5006511;28;20080;-19
2023/06/19 02:22:31;;;;;;;11.75;9.43;;;;;;;19.90;96.88;99884.78;5006466;28;20571;-19
2023/06/19 02:24:56;;;;;;;11.82;9.32;;;;;;;20.04;95.24;99889.25;5006600;28;20022;-18
2023/06/19 02:27:21;;;;;;;11.82;9.52;;;;;;;19.88;94.84;99874.25;5006178;28;20100;-19
2023/06/19 02:29:47;;;;;;;13.45;8.63;;;;;;;19.90;95.31;99885.59;5006760;28;20217;-18
2023/06/19 02:32:12;;;;;;;12.02;8.93;;;;;;;19.75;95.08;99885.72;5006220;28;20018;-17
2023/06/19 02:34:38;;;;;;;10.25;8.38;;;;;;;19.82;92.40;99888.94;5006394;28;20033;-18
2023/06/19 02:37:03;;;;;;;10.50;8.45;;;;;;;19.79;93.41;99892.19;5006217;28;20109;-18
2023/06/19 02:39:29;;;;;;;11.38;8.80;;;;;;;19.84;94.23;99894.88;5006680;28;20067;-18
2023/06/19 02:41:54;;;;;;;12.23;8.60;;;;;;;19.91;93.89;99898.03;5005983;28;20433;-28
2023/06/19 02:44:20;;;;;;;10.68;8.75;;;;;;;19.71;97.11;99901.72;4995881;28;20441;-19
2023/06/19 02:46:45;;;;;;;10.82;9.18;;;;;;;19.61;96.45;99896.38;4986711;28;20418;-18
2023/06/19 02:49:10;;;;;;;14.15;9.38;;;;;;;19.66;96.04;99899.84;4986523;28;20053;-18
2023/06/19 02:51:36;;;;;;;12.27;8.85;;;;;;;19.80;94.72;99899.22;4986461;28;20026;-18
2023/06/19 02:54:01;;;;;;;13.70;8.63;;;;;;;19.83;95.51;99904.84;4986184;28;20026;-18
2023/06/19 02:56:28;;;;;;;10.00;8.20;;;;;;;19.94;90.42;99907.47;4986438;28;20406;-18
2023/06/19 02:58:54;;;;;;;8.85;7.65;;;;;;;19.87;89.94;99905.91;4986374;28;20096;-20
2023/06/19 03:01:19;;;;;;;11.82;8.10;;;;;;;19.78;90.50;99901.41;4986506;28;20034;-20
2023/06/19 03:03:46;;;;;;;10.93;8.15;;;;;;;19.80;90.27;99907.34;4986525;28;20477;-18
2023/06/19 03:06:13;;;;;;;10.57;7.72;;;;;;;19.85;87.79;99891.06;4986515;28;20109;-18
2023/06/19 03:08:39;;;;;;;9.20;7.13;;;;;;;19.76;89.58;99898.97;4986230;28;20041;-17
2023/06/19 03:11:05;;;;;;;9.73;7.22;;;;;;;19.67;90.98;99896.03;4986164;28;20030;-17
2023/06/19 03:13:48;;;;;;;9.85;7.15;;;;;;;19.78;90.89;99902.22;4986094;28;20022;-18
2023/06/19 03:16:14;;;;;;;9.13;7.30;;;;;;;19.70;91.29;99907.41;4986199;28;20030;-18
2023/06/19 03:18:41;;;;;;;12.07;7.32;;;;;;;19.57;93.28;99898.81;4986077;28;20040;-18
2023/06/19 03:21:07;;;;;;;11.17;8.53;;;;;;;19.76;92.38;99904.41;4986222;28;20133;-18
2023/06/19 03:23:32;;;;;;;11.93;8.10;;;;;;;19.46;94.80;99910.81;4986155;28;20360;-18
2023/06/19 03:25:58;;;;;;;12.35;8.63;;;;;;;19.46;94.08;99905.41;4986066;28;20080;-18
2023/06/19 03:28:23;;;;;;;11.80;7.97;;;;;;;19.50;94.77;99917.28;4985845;28;20041;-18
2023/06/19 03:30:50;;;;;;;10.30;8.05;;;;;;;19.58;93.98;99915.88;4986025;28;20030;-18
2023/06/19 03:33:15;;;;;;;9.57;8.13;;;;;;;19.45;94.99;99914.59;4986381;28;20031;-18
2023/06/19 03:35:40;;;;;;;10.75;8.65;;;;;;;19.48;94.46;99901.31;4985924;28;20477;-18
2023/06/19 03:38:06;;;;;;;12.15;8.93;;;;;;;19.32;96.82;99909.84;4985786;28;20559;-20
2023/06/19 03:40:31;;;;;;;11.65;8.68;;;;;;;19.40;95.68;99915.44;4985620;28;20088;-18
2023/06/19 03:42:57;;;;;;;13.00;8.98;;;;;;;19.50;95.73;99913.78;4985898;28;20434;-18
2023/06/19 03:45:22;;;;;;;12.52;9.00;;;;;;;19.55;93.99;99913.72;4985932;28;20161;-19
2023/06/19 03:47:47;;;;;;;16.23;9.07;;;;;;;19.46;95.61;99922.44;4986241;28;20038;-17
2023/06/19 03:50:13;;;;;;;11.20;9.23;;;;;;;19.47;95.12;99915.13;4985826;28;20126;-19
2023/06/19 03:52:38;;;;;;;16.77;9.93;;;;;;;19.61;97.33;99915.28;4985837;28;21239;-19
2023/06/19 03:55:04;;;;;;;11.32;9.40;;;;;;;19.56;94.61;99910.75;4985650;28;20045;-18
2023/06/19 03:57:30;;;;;;;13.10;10.50;;;;;;;19.49;94.63;99912.94;4986128;28;20089;-18
2023/06/19 03:59:56;;;;;;;12.52;9.35;;;;;;;19.33;94.98;99906.03;4985769;28;20046;-18
2023/06/19 04:02:22;;;;;;;13.88;9.90;;;;;;;19.51;95.15;99908.06;4985626;28;20134;-23
2023/06/19 04:04:48;;;;;;;10.77;9.07;;;;;;;19.53;94.95;99919.41;4985835;28;20496;-18
2023/06/19 04:07:13;;;;;;;17.67;9.50;;;;;;;19.61;94.00;99913.41;4987480;28;20022;-18
2023/06/19 04:09:39;;;;;;;14.63;9.23;;;;;;;19.77;94.07;99916.03;4989522;28;20034;-18
2023/06/19 04:12:07;;;;;;;11.35;9.18;;;;;;;19.77;93.64;99926.84;4989469;28;20027;-18
2023/06/19 04:14:33;;;;;;;11.82;8.40;;;;;;;19.88;92.76;99922.97;4989428;28;20430;-18
2023/06/19 04:16:58;;;;;;;11.93;8.73;;;;;;;19.96;93.11;99925.06;4989396;28;20026;-19
2023/06/19 04:19:24;;;;;;;11.23;8.32;;;;;;;20.23;90.87;99929.13;4989347;28;20120;-19
2023/06/19 04:21:49;;;;;;;12.00;8.55;;;;;;;20.17;90.34;99924.88;4989140;28;20030;-18
2023/06/19 04:24:14;;;;;;;11.45;9.20;;;;;;;20.33;89.66;99929.03;4989397;28;20460;-17
2023/06/19 04:26:42;;;;;;;11.48;9.38;;;;;;;20.30;89.20;99926.09;4989136;28;20037;-17
2023/06/19 04:29:07;;;;;;;16.00;10.35;;;;;;;20.36;89.80;99933.84;4989111;28;20123;-18
2023/06/19 04:31:35;;;;;;;12.43;10.02;;;;;;;20.29;91.56;99925.28;4988906;28;20476;-19
2023/06/19 04:34:04;;;;;;;14.88;10.18;;;;;;;20.31;92.28;99925.81;4989055;28;20038;-18
2023/06/19 04:36:31;;;;;;;11.75;10.00;;;;;;;20.38;89.90;99934.38;4988872;28;20058;-18
2023/06/19 04:38:58;;;;;;;11.07;9.43;;;;;;;20.41;90.94;99931.13;4989151;28;20033;-20
2023/06/19 04:41:23;;;;;;;12.75;9.60;;;;;;;20.46;89.69;99924.81;4988638;28;20668;-18
2023/06/19 04:43:49;;;;;;;12.00;9.00;;;;;;;20.66;87.63;99942.78;4989136;28;20646;-17
2023/06/19 04:46:20;;;;;;;13.82;9.45;;;;;;;20.59;88.57;99936.88;4988839;28;20085;-18
2023/06/19 04:48:50;;;;;;;11.70;9.27;;;;;;;20.74;87.97;99939.44;4988884;28;20041;-18
2023/06/19 04:51:21;;;;;;;12.20;9.27;;;;;;;20.92;86.53;99920.78;4989030;28;20025;-18
2023/06/19 04:53:47;;;;;;;12.20;9.43;;;;;;;21.12;86.65;99941.38;4988754;28;20133;-17
2023/06/19 04:56:14;;;;;;;11.23;9.13;;;;;;;21.36;85.67;99938.59;4988807;28;20026;-19
2023/06/19 04:58:45;;;;;;;13.77;9.27;;;;;;;21.41;85.33;99931.22;4988374;28;20104;-18
2023/06/19 05:01:12;;;;;;;10.80;8.98;;;;;;;21.48;86.46;99935.50;4988570;28;20040;-19
2023/06/19 05:03:38;;;;;;;10.88;8.60;;;;;;;21.76;83.83;99942.63;4988449;28;20031;-18
2023/06/19 05:06:03;;;;;;;9.25;7.63;;;;;;;21.78;80.31;99945.03;4988642;28;20037;-18
2023/06/19 05:08:29;;;;;;;11.57;7.28;;;;;;;21.83;81.04;99937.63;4988164;28;20034;-18
2023/06/19 05:10:54;;;;;;;9.98;7.15;;;;;;;21.86;79.27;99942.47;4988623;28;20033;-18
2023/06/19 05:13:20;;;;;;;11.05;7.13;;;;;;;21.93;77.95;99941.28;4988304;28;20034;-18
2023/06/19 05:15:45;;;;;;;11.05;7.22;;;;;;;21.93;78.59;99942.06;4988354;28;20037;-19
2023/06/19 05:18:11;;;;;;;11.23;6.68;;;;;;;22.02;78.29;99945.72;4987811;28;20026;-18
2023/06/19 05:20:36;;;;;;;9.88;7.18;;;;;;;22.17;76.95;99943.81;4988128;28;20141;-18
2023/06/19 05:23:02;;;;;;;8.07;5.97;;;;;;;22.26;76.14;99933.91;4988158;28;20018;-19
2023/06/19 05:25:27;;;;;;;8.30;6.30;;;;;;;22.30;75.61;99925.97;4988184;28;20548;-18
2023/06/19 05:27:53;;;;;;;10.18;6.82;;;;;;;22.33;75.99;99934.34;4970283;28;20034;-21
2023/06/19 05:30:18;;;;;;;10.63;6.15;;;;;;;22.40;74.42;99940.19;4987937;28;20169;-17
2023/06/19 05:32:44;;;;;;;8.38;6.35;;;;;;;22.52;74.69;99939.69;4987732;28;20109;-18
2023/06/19 05:35:09;;;;;;;7.68;6.25;;;;;;;;;;4987993;28;20403;-18
2023/06/19 05:37:34;;;;;;;10.50;6.85;;;;;;;22.80;73.08;99943.19;4987778;28;20045;-18
2023/06/19 05:40:00;;;;;;;7.35;5.47;;;;;;;22.77;72.16;99946.50;4987723;28;20084;-18
2023/06/19 05:42:25;;;;;;;8.35;6.15;;;;;;;22.98;73.17;99951.53;4987997;28;20030;-18
2023/06/19 05:44:51;;;;;;;8.93;6.53;;;;;;;23.21;73.37;99946.97;4987878;28;20054;-20
2023/06/19 05:47:19;;;;;;;8.27;6.32;;;;;;;23.35;70.47;99952.38;4987857;28;20757;-20
2023/06/19 05:49:44;;;;;;;7.50;6.03;;;;;;;23.29;71.44;99950.88;4987812;28;20038;-19
2023/06/19 05:52:10;;;;;;;7.10;5.80;;;;;;;23.52;69.74;99952.53;4987871;28;20026;-17
2023/06/19 05:54:35;;;;;;;9.25;5.88;;;;;;;23.57;70.20;99948.88;4987604;28;20023;-18
2023/06/19 05:57:01;;;;;;;8.52;5.90;;;;;;;23.74;70.76;99948.19;4987797;28;20117;-19
2023/06/19 05:59:26;;;;;;;7.70;5.50;;;;;;;23.62;68.18;99951.47;4987476;28;20034;-18
2023/06/19 06:01:53;;;;;;;8.43;5.72;;;;;;;23.57;68.61;99948.88;4987614;28;20042;-17
2023/06/19 06:04:21;;;;;;;8.20;6.10;;;;;;;23.81;67.32;99959.50;4987736;28;20089;-18
2023/06/19 06:06:47;;;;;;;8.93;5.97;;;;;;;23.95;66.66;99957.50;4987139;28;20461;-18
2023/06/19 06:09:13;;;;;;;8.35;5.97;;;;;;;24.14;65.83;99959.22;4985868;28;20627;-18
2023/06/19 06:11:38;;;;;;;9.00;6.13;;;;;;;24.31;65.35;99961.22;4987494;28;20528;-18
2023/06/19 06:14:04;;;;;;;10.70;5.95;;;;;;;24.17;64.83;99964.84;4987125;28;20550;-19
2023/06/19 06:16:29;;;;;;;7.35;5.93;;;;;;;24.40;64.95;99967.53;4987340;28;20029;-18
2023/06/19 06:18:55;;;;;;;7.50;5.80;;;;;;;24.47;63.09;99955.03;4987135;28;20517;-17
2023/06/19 06:21:20;;;;;;;7.38;5.57;;;;;;;24.73;61.29;99972.66;4987021;28;20022;-18
2023/06/19 06:23:47;;;;;;;10.10;6.30;;;;;;;24.52;62.40;99973.22;4986720;28;20192;-18
2023/06/19 06:26:13;;;;;;;8.63;5.13;;;;;;;24.66;59.62;99973.09;4986806;28;20040;-18
2023/06/19 06:28:39;;;;;;;9.82;5.70;;;;;;;24.40;61.90;99959.34;4986740;28;20038;-18
2023/06/19 06:31:04;;;;;;;6.30;4.85;;;;;;;24.57;60.55;99969.56;4986248;28;20057;-19
2023/06/19 06:33:32;;;;;;;8.13;5.53;;;;;;;24.85;62.68;99970.94;4986844;28;20764;-19
2023/06/19 06:35:59;;;;;;;8.93;5.53;;;;;;;25.01;59.73;99967.75;4986589;28;20413;-17
2023/06/19 06:38:24;;;;;;;7.47;5.20;;;;;;;25.02;58.83;99969.34;4986875;28;20041;-18
2023/06/19 06:40:50;;;;;;;7.70;5.95;;;;;;;25.00;58.34;99966.13;4986446;28;20042;-19
2023/06/19 06:43:15;;;;;;;8.60;5.68;;;;;;;25.01;59.28;99965.84;4986589;28;20126;-18
2023/06/19 06:45:42;;;;;;;7.20;5.80;;;;;;;25.17;59.60;99962.63;4986711;28;20085;-18
2023/06/19 06:48:08;;;;;;;7.65;5.47;;;;;;;25.23;59.52;99964.13;4986526;28;20034;-19
2023/06/19 06:50:33;;;;;;;7.80;5.43;;;;;;;24.98;59.75;99944.63;4986310;28;20406;-17
2023/06/19 06:52:59;;;;;;;8.50;5.68;;;;;;;24.97;58.92;99955.88;4986848;28;20713;-18
2023/06/19 06:55:25;;;;;;;8.13;5.38;;;;;;;25.05;58.43;99963.28;4986669;28;20076;-18
2023/06/19 06:57:50;;;;;;;7.03;5.28;;;;;;;25.06;57.88;99956.69;4986736;28;20030;-19
2023/06/19 07:00:18;;;;;;;7.75;6.22;;;;;;;25.12;59.00;99963.59;4986270;28;20469;-18
2023/06/19 07:02:43;;;;;;;8.40;5.70;;;;;;;25.12;59.89;99958.13;4986309;28;20036;-17
2023/06/19 07:05:09;;;;;;;10.13;4.82;;;;;;;25.19;56.62;99949.47;4986291;28;20438;-19
2023/06/19 07:07:34;;;;;;;8.57;5.85;;;;;;;25.60;56.86;99968.16;4986070;28;20039;-18
2023/06/19 07:10:00;;;;;;;8.05;5.80;;;;;;;25.42;56.71;99953.69;4986013;28;20568;-18
2023/06/19 07:12:26;;;;;;;6.90;5.72;;;;;;;25.40;55.85;99966.06;4986340;28;20109;-18
2023/06/19 07:14:55;;;;;;;8.27;5.80;;;;;;;25.33;55.55;99965.72;4986272;28;20053;-18
2023/06/19 07:17:20;;;;;;;10.23;5.82;;;;;;;25.46;57.09;99972.97;4986480;28;20581;-17
2023/06/19 07:19:46;;;;;;;8.93;5.30;;;;;;;25.57;57.31;99965.25;4985712;28;20125;-18
2023/06/19 07:22:12;;;;;;;9.40;5.22;;;;;;;25.66;55.98;99968.78;4986472;28;20022;-17
2023/06/19 07:24:37;;;;;;;7.45;5.50;;;;;;;25.48;54.98;99965.28;4986263;28;20058;-18
2023/06/19 07:27:03;;;;;;;10.55;6.00;;;;;;;25.74;55.72;99969.91;4985968;28;20092;-19
2023/06/19 07:29:29;;;;;;;8.88;6.10;;;;;;;25.94;54.21;99974.72;4985821;28;20084;-18
2023/06/19 07:31:55;;;;;;;7.75;5.43;;;;;;;26.26;54.95;99973.38;4985854;28;20035;-18
2023/06/19 07:34:21;;;;;;;7.68;5.10;;;;;;;26.32;54.32;99970.47;4968861;28;20469;-18
2023/06/19 07:36:46;;;;;;;9.23;5.45;;;;;;;26.28;52.34;99974.97;4986149;28;20026;-18
2023/06/19 07:39:12;;;;;;;9.82;6.35;;;;;;;26.44;52.97;99974.13;4985954;28;20030;-18
2023/06/19 07:41:37;;;;;;;7.10;5.60;;;;;;;26.33;54.41;99970.13;4986664;28;20031;-18
2023/06/19 07:44:03;;;;;;;8.68;5.63;;;;;;;26.35;54.70;99981.53;4990042;28;20074;-18
2023/06/19 07:46:29;;;;;;;7.82;5.20;;;;;;;26.76;55.81;99968.34;4972685;28;20053;-19
2023/06/19 07:48:54;;;;;;;8.85;6.07;;;;;;;26.85;52.71;99975.41;4990165;28;20505;-19
2023/06/19 07:51:20;;;;;;;6.72;5.40;;;;;;;26.75;53.88;99966.78;4989786;28;20026;-18
2023/06/19 07:53:45;;;;;;;7.72;5.68;;;;;;;26.63;50.93;99970.19;4989804;28;20507;-18
2023/06/19 07:56:11;;;;;;;8.30;5.68;;;;;;;26.81;50.62;99971.72;4989691;28;20026;-18
2023/06/19 07:58:36;;;;;;;7.95;6.22;;;;;;;27.11;54.73;99968.94;4989698;28;20030;-20
2023/06/19 08:01:02;;;;;;;7.35;5.10;;;;;;;27.17;50.66;99975.03;4989809;28;20517;-18
2023/06/19 08:03:27;;;;;;;6.90;5.18;;;;;;;27.19;51.71;99954.41;4989767;28;20033;-18
2023/06/19 08:05:53;;;;;;;8.25;5.38;;;;;;;27.27;50.88;99965.66;4990039;28;20473;-22
2023/06/19 08:08:18;;;;;;;9.15;5.72;;;;;;;27.48;51.13;99960.97;4989681;28;20026;-18
2023/06/19 08:10:44;;;;;;;7.68;5.45;;;;;;;27.41;51.22;99961.50;4989514;28;20041;-18
2023/06/19 08:13:11;;;;;;;9.27;5.68;;;;;;;27.64;50.85;99974.84;4989495;28;20451;-18
2023/06/19 08:15:36;;;;;;;7.65;5.28;;;;;;;27.74;49.78;99966.22;4989591;28;20054;-19
2023/06/19 08:18:02;;;;;;;7.35;5.35;;;;;;;27.63;49.64;99967.78;4989486;28;20062;-18
2023/06/19 08:20:28;;;;;;;7.57;5.32;;;;;;;27.94;50.11;99961.88;4989495;28;20093;-18
2023/06/19 08:22:53;;;;;;;7.45;5.13;;;;;;;28.03;47.30;99970.81;4989364;28;20030;-18
2023/06/19 08:25:19;;;;;;;7.35;5.80;;;;;;;28.20;47.84;99975.28;4989540;28;20434;-18
2023/06/19 08:27:45;;;;;;;10.23;6.38;;;;;;;27.91;50.47;99976.25;4989368;28;20518;-20
2023/06/19 08:30:11;;;;;;;6.88;5.20;;;;;;;28.28;46.60;99968.13;4989320;28;20034;-18
2023/06/19 08:32:36;;;;;;;7.72;5.53;;;;;;;28.50;45.45;99986.09;4989013;28;20088;-18
2023/06/19 08:35:03;;;;;;;6.95;4.97;;;;;;;28.79;45.15;99979.59;4989080;28;20026;-18
2023/06/19 08:37:28;;;;;;;7.38;5.07;;;;;;;28.82;46.46;99984.38;4989022;28;20632;-18
2023/06/19 08:39:55;;;;;;;7.15;5.10;;;;;;;28.72;44.33;99987.59;4989042;28;20030;-18
2023/06/19 08:42:22;;;;;;;6.70;5.18;;;;;;;28.36;44.65;99982.84;4989028;28;20041;-18
2023/06/19 08:44:48;;;;;;;6.93;4.80;;;;;;;28.69;46.56;99985.56;4989140;28;20044;-18
2023/06/19 08:47:13;;;;;;;6.68;4.88;;;;;;;28.87;42.37;99990.78;4988811;28;20057;-19
2023/06/19 08:49:39;;;;;;;8.05;4.90;;;;;;;28.68;43.35;99989.44;4989156;28;20030;-18
2023/06/19 08:52:05;;;;;;;8.85;4.78;;;;;;;28.98;41.84;99986.44;4988013;28;20084;-17
2023/06/19 08:54:31;;;;;;;7.00;5.22;;;;;;;29.16;40.67;99982.34;4988828;28;20078;-18
2023/06/19 08:57:00;;;;;;;6.25;4.97;;;;;;;29.56;40.59;99989.75;4988708;28;20053;-18
2023/06/19 08:59:28;;;;;;;7.03;4.60;;;;;;;29.53;40.33;99989.69;4988869;28;20022;-18
2023/06/19 09:01:54;;;;;;;5.78;4.47;;;;;;;29.69;39.41;99995.22;4988614;28;20073;-22
2023/06/19 09:04:26;;;;;;;8.18;4.53;;;;;;;29.69;39.96;99982.28;4988614;28;20038;-19
2023/06/19 09:06:59;;;;;;;7.05;4.68;;;;;;;29.79;38.61;99981.00;4988726;28;20030;-18
2023/06/19 09:09:26;;;;;;;6.40;4.38;;;;;;;29.75;40.06;99985.59;4988485;28;20061;-18
2023/06/19 09:12:06;;;;;;;6.20;4.70;;;;;;;29.78;38.88;99982.16;4988653;28;20052;-19
2023/06/19 09:14:33;;;;;;;7.00;4.75;;;;;;;29.64;40.43;99966.84;4988320;28;20042;-18
2023/06/19 09:16:59;;;;;;;7.82;4.93;;;;;;;29.80;40.23;99977.13;4988504;28;20064;-18
2023/06/19 09:19:24;;;;;;;6.78;4.53;;;;;;;29.99;41.24;99979.97;4988432;28;20042;-19
2023/06/19 09:21:50;;;;;;;8.02;4.97;;;;;;;29.99;40.73;99976.44;4988441;28;20073;-18
2023/06/19 09:24:16;;;;;;;7.43;4.57;;;;;;;30.13;40.08;99973.28;4988180;28;20054;-19
2023/06/19 09:26:41;;;;;;;6.57;4.68;;;;;;;30.29;37.90;99976.03;4988112;28;20049;-19
2023/06/19 09:29:11;;;;;;;6.63;4.60;;;;;;;30.08;38.99;99976.25;4988222;28;20030;-18
2023/06/19 09:31:37;;;;;;;6.13;4.50;;;;;;;30.17;38.55;99960.41;4988086;28;20030;-19
2023/06/19 09:34:04;;;;;;;8.73;4.35;;;;;;;29.65;37.40;99965.69;4988277;28;20149;-20
2023/06/19 09:36:32;;;;;;;6.38;4.10;;;;;;;29.56;38.02;99948.53;4987972;28;20100;-19
2023/06/19 09:38:59;;;;;;;9.00;4.70;;;;;;;29.77;39.50;99955.81;4987989;28;20061;-18
2023/06/19 09:41:26;;;;;;;9.25;4.68;;;;;;;29.83;38.67;99959.91;4988140;28;20060;-18
2023/06/19 09:43:57;;;;;;;7.82;4.53;;;;;;;29.97;38.86;99943.78;4987995;28;20062;-18
2023/06/19 09:46:29;;;;;;;6.78;4.45;;;;;;;30.30;38.89;99948.22;4987465;28;20035;-21
2023/06/19 09:48:58;;;;;;;8.73;5.75;;;;;;;30.25;37.51;99951.19;4987831;28;20038;-18
2023/06/19 09:51:36;;;;;;;7.32;3.97;;;;;;;30.26;37.82;99947.28;4987553;28;20490;-19
2023/06/19 09:54:03;;;;;;;6.03;3.95;;;;;;;30.42;37.50;99958.31;4987718;28;20034;-18
2023/06/19 09:56:29;;;;;;;5.47;3.70;;;;;;;30.71;33.48;99959.81;4987548;28;20113;-18
2023/06/19 09:58:59;;;;;;;5.90;4.30;;;;;;;30.86;35.42;99943.63;4987357;28;20185;-19
2023/06/19 10:01:29;;;;;;;6.15;4.55;;;;;;;31.09;36.09;99947.28;4987491;28;20061;-21
2023/06/19 10:04:06;;;;;;;7.47;4.30;;;;;;;30.88;37.23;99935.81;4986990;28;20035;-19
2023/06/19 10:06:32;;;;;;;7.75;3.88;;;;;;;30.79;36.01;99939.53;4987401;28;20057;-18
2023/06/19 10:09:06;;;;;;;6.05;4.00;;;;;;;31.15;33.95;99950.56;4987314;28;20022;-18
2023/06/19 10:11:50;;;;;;;6.95;4.05;;;;;;;31.45;34.92;99942.56;4987238;28;20470;-19
2023/06/19 10:14:18;;;;;;;6.40;3.70;;;;;;;31.33;35.93;99946.22;4987233;28;20760;-18
2023/06/19 10:16:43;;;;;;;;;;;;;;;31.23;36.48;99942.09;4987763;28;20096;-18
2023/06/19 10:19:17;;;;;;;5.22;3.75;;;;;;;31.34;33.72;99941.50;4987489;28;19961;-18
2023/06/19 10:21:54;;;;;;;7.60;4.32;;;;;;;31.38;36.41;99925.84;4987221;28;20114;-18
2023/06/19 10:24:20;;;;;;;8.43;4.20;;;;;;;31.47;35.50;99934.75;4986974;28;20495;-18
2023/06/19 10:27:00;;;;;;;5.43;4.00;;;;;;;31.45;36.31;99926.03;4987164;28;20053;-18
2023/06/19 10:29:26;;;;;;;6.07;4.18;;;;;;;31.42;34.67;99932.22;4987408;28;20100;-19
2023/06/19 10:31:52;;;;;;;7.55;4.20;;;;;;;31.53;36.12;99916.75;4987509;28;20027;-17
2023/06/19 10:34:18;;;;;;;5.68;4.00;;;;;;;31.71;33.43;99927.28;4986893;28;20061;-18
2023/06/19 10:36:44;;;;;;;6.38;4.13;;;;;;;31.82;34.47;99922.78;4986803;28;20026;-18
2023/06/19 10:39:10;;;;;;;5.97;3.70;;;;;;;31.83;36.17;99918.84;4986784;28;20116;-18
2023/06/19 10:41:39;;;;;;;7.72;4.00;;;;;;;31.86;35.31;99912.63;4986965;28;20043;-19
2023/06/19 10:44:12;;;;;;;7.68;4.18;;;;;;;31.88;34.39;99898.47;4986550;28;20042;-18
2023/06/19 10:46:38;;;;;;;5.28;4.10;;;;;;;31.97;33.33;99912.81;4986923;28;20038;-19
2023/06/19 10:49:07;;;;;;;6.90;4.80;;;;;;;32.02;33.61;99898.75;4986763;28;20041;-18
2023/06/19 10:51:41;;;;;;;6.93;4.10;;;;;;;32.20;34.70;99901.78;4986337;28;20297;-18
2023/06/19 10:54:07;;;;;;;5.75;4.13;;;;;;;32.15;35.25;99908.41;4986526;28;20061;-19
2023/06/19 10:56:33;;;;;;;5.13;4.07;;;;;;;32.68;33.00;99913.19;4986909;28;20501;-18
2023/06/19 10:59:09;;;;;;;6.55;3.70;;;;;;;32.58;34.05;99902.81;4986218;28;20030;-16
2023/06/19 11:01:39;;;;;;;5.35;3.90;;;;;;;32.31;35.60;99890.94;4986617;28;20058;-18
2023/06/19 11:04:13;;;;;;;5.70;3.65;;;;;;;32.24;35.18;99891.59;4986482;28;20570;-18
2023/06/19 11:06:40;;;;;;;6.78;3.90;;;;;;;32.01;33.38;99897.94;4986491;28;20041;-18
2023/06/19 11:09:06;;;;;;;;;;;;;;;32.07;33.82;99897.63;4986779;28;20057;-21
2023/06/19 11:11:36;;;;;;;8.02;4.50;;;;;;;32.27;35.28;99887.31;4986511;28;19927;-19
2023/06/19 11:14:02;;;;;;;6.32;3.90;;;;;;;32.78;32.28;99884.94;4986293;28;20112;-18
2023/06/19 11:16:27;;;;;;;6.22;4.65;;;;;;;33.02;33.47;99888.41;4986130;28;20058;-18
2023/06/19 11:19:00;;;;;;;5.68;3.65;;;;;;;32.55;31.99;99886.97;4986703;28;20030;-20
2023/06/19 11:21:37;;;;;;;7.25;3.45;;;;;;;32.55;32.99;99886.97;4986183;28;20026;-18
2023/06/19 11:24:03;;;;;;;;;;;;;;;32.67;33.34;99889.50;4986714;28;20046;-18
2023/06/19 11:26:29;;;;;;;7.63;4.30;;;;;;;32.97;30.82;99880.44;4986556;28;19914;-18
2023/06/19 11:28:54;;;;;;;6.38;3.80;;;;;;;33.32;33.24;99857.19;4985982;28;20033;-23
2023/06/19 11:31:27;;;;;;;10.98;4.38;;;;;;;33.63;33.89;99889.13;4986439;28;20038;-18